Time;durP1;ratioP1;P1;durP2;ratioP2;P2;SDS_P1;SDS_P2;PMS_P1;PMS_P2;Temp;Humidity;BMP_temperature;BMP_pressure;BME280_temperature;BME280_humidity;BME280_pressure;Samples;Min_cycle;Max_cycle;Signal;HPM_P1;HPM_P2
2022/08/06 00:00:16;;;;;;;;;;;;;;;27.17;59.34;100991.72;4992077;28;20380;-85
2022/08/06 00:02:49;;;;;;;;;;;;;;;27.14;59.73;100983.75;5003167;28;19913;-85
2022/08/06 00:05:17;;;;;;;;;;;;;;;27.15;59.52;100985.50;4981079;28;19920;-85
2022/08/06 00:07:42;;;;;;;;;;;;;;;27.14;59.62;100978.38;5012751;28;19921;-85
2022/08/06 00:10:11;;;;;;;;;;;;;;;27.14;59.45;100981.06;5009402;28;19967;-85
2022/08/06 00:12:37;;;;;;;;;;;;;;;27.14;59.61;100981.06;5010298;28;19963;-85
2022/08/06 00:15:03;;;;;;;;;;;;;;;27.13;59.72;100969.41;5008825;28;20360;-84
2022/08/06 00:17:29;;;;;;;;;;;;;;;27.13;59.49;100966.75;5008955;28;19937;-85
2022/08/06 00:19:54;;;;;;;;;;;;;;;27.17;59.42;100962.25;4990135;28;20383;-83
2022/08/06 00:22:20;;;;;;;;;;;;;;;27.14;59.40;100965.84;5012624;28;19913;-84
2022/08/06 00:24:45;;;;;;;;;;;;;;;27.13;59.42;100958.69;5009478;28;20004;-85
2022/08/06 00:27:11;;;;;;;;;;;;;;;27.11;59.32;100965.00;5007219;28;20343;-84
2022/08/06 00:29:37;;;;;;;;;;;;;;;27.12;59.71;100961.41;5012227;28;19914;-84
2022/08/06 00:32:02;;;;;;;;;;;;;;;27.11;59.58;100955.16;5008223;28;19972;-85
2022/08/06 00:34:28;;;;;;;;;;;;;;;27.13;59.37;100961.38;5011066;28;19914;-86
2022/08/06 00:36:53;;;;;;;;;;;;;;;27.13;59.54;100956.00;5012192;28;19913;-84
2022/08/06 00:39:19;;;;;;;;;;;;;;;27.11;59.22;100963.19;5010319;28;19917;-85
2022/08/06 00:41:44;;;;;;;;;;;;;;;27.11;59.31;100960.50;5009359;28;20339;-84
2022/08/06 00:44:10;;;;;;;;;;;;;;;27.09;59.29;100958.75;4989533;28;19913;-84
2022/08/06 00:46:35;;;;;;;;;;;;;;;27.10;59.47;100955.19;5025350;28;19925;-85
2022/08/06 00:49:00;;;;;;;;;;;;;;;27.09;59.45;100950.72;5010172;28;19963;-83
2022/08/06 00:51:26;;;;;;;;;;;;;;;27.09;59.32;100962.31;5002206;28;19968;-86
2022/08/06 00:53:51;;;;;;;;;;;;;;;27.09;59.02;100950.72;4988006;28;19914;-84
2022/08/06 00:56:17;;;;;;;;;;;;;;;27.07;59.13;100958.75;5004465;28;20323;-85
2022/08/06 00:58:43;;;;;;;;;;;;;;;27.09;59.27;100948.91;4981059;28;19918;-84
2022/08/06 01:01:08;;;;;;;;;;;;;;;27.08;59.27;100948.94;4994656;28;20310;-84
2022/08/06 01:03:34;;;;;;;;;;;;;;;27.07;59.37;100950.72;5012025;28;19936;-84
2022/08/06 01:05:59;;;;;;;;;;;;;;;27.08;59.22;100949.84;5003399;28;19913;-84
2022/08/06 01:08:25;;;;;;;;;;;;;;;27.09;59.19;100950.72;5004703;28;20008;-85
2022/08/06 01:10:50;;;;;;;;;;;;;;;27.10;59.31;100949.81;5002025;28;19956;-84
2022/08/06 01:13:16;;;;;;;;;;;;;;;27.07;59.21;100958.75;5009871;28;20026;-84
2022/08/06 01:15:42;;;;;;;;;;;;;;;27.06;59.38;100948.09;5010590;28;20442;-84
2022/08/06 01:18:09;;;;;;;;;;;;;;;27.05;59.27;100952.56;5005233;28;20387;-85
2022/08/06 01:20:50;;;;;;;;;;;;;;;27.05;59.48;100951.66;5008955;28;20314;-84
2022/08/06 01:23:28;;;;;;;;;;;;;;;27.06;59.04;100951.63;5030876;28;19917;-84
2022/08/06 01:25:56;;;;;;;;;;;;;;;27.06;59.04;100954.31;5028588;28;19913;-84
2022/08/06 01:28:25;;;;;;;;;;;;;;;27.02;59.12;100950.78;5024553;28;19913;-85
2022/08/06 01:30:56;;;;;;;;;;;;;;;27.03;59.41;100951.69;5014169;28;19913;-85
2022/08/06 01:33:30;;;;;;;;;;;;;;;27.05;59.18;100952.56;4998218;28;19921;-85
2022/08/06 01:35:56;;;;;;;;;;;;;;;27.01;59.36;100940.97;4998104;28;19917;-84
2022/08/06 01:38:40;;;;;;;;;;;;;;;27.00;59.07;100951.72;4992422;28;19918;-84
2022/08/06 01:41:07;;;;;;;;;;;;;;;27.01;59.35;100954.38;5014458;28;20024;-85
2022/08/06 01:43:32;;;;;;;;;;;;;;;26.97;59.14;100952.63;4998222;28;19914;-85
2022/08/06 01:45:59;;;;;;;;;;;;;;;27.02;59.21;100953.47;5004860;28;20429;-85
2022/08/06 01:48:25;;;;;;;;;;;;;;;27.02;58.93;100949.91;5009024;28;19917;-85
2022/08/06 01:50:51;;;;;;;;;;;;;;;26.98;59.22;100948.16;5017485;28;19922;-84
2022/08/06 01:53:17;;;;;;;;;;;;;;;26.99;59.13;100947.28;5007428;28;19913;-84
2022/08/06 01:55:44;;;;;;;;;;;;;;;27.01;59.21;100946.34;5011566;28;19913;-83
2022/08/06 01:58:10;;;;;;;;;;;;;;;27.03;58.99;100943.66;5006445;28;19921;-84
2022/08/06 02:00:40;;;;;;;;;;;;;;;26.97;59.21;100941.91;5017225;28;20218;-85
2022/08/06 02:03:16;;;;;;;;;;;;;;;26.97;58.94;100941.03;5014098;28;19987;-84
2022/08/06 02:05:42;;;;;;;;;;;;;;;27.00;58.82;100935.63;5017327;28;20007;-83
2022/08/06 02:08:07;;;;;;;;;;;;;;;26.98;59.19;100940.13;4999756;28;20413;-83
2022/08/06 02:10:33;;;;;;;;;;;;;;;26.97;58.91;100933.00;5009345;28;19979;-84
2022/08/06 02:12:58;;;;;;;;;;;;;;;26.95;59.32;100935.69;5016750;28;19920;-84
2022/08/06 02:15:26;;;;;;;;;;;;;;;26.94;59.32;100927.66;5008354;28;19913;-84
2022/08/06 02:17:52;;;;;;;;;;;;;;;26.94;59.28;100930.34;5004257;28;19924;-84
2022/08/06 02:20:23;;;;;;;;;;;;;;;26.93;59.16;100936.63;5016748;28;20382;-84
2022/08/06 02:22:48;;;;;;;;;;;;;;;26.92;59.38;100937.50;5016021;28;19917;-85
2022/08/06 02:25:14;;;;;;;;;;;;;;;26.94;59.15;100935.69;5016896;28;19917;-84
2022/08/06 02:27:41;;;;;;;;;;;;;;;26.96;58.91;100939.25;5016658;28;19913;-84
2022/08/06 02:30:07;;;;;;;;;;;;;;;26.96;59.03;100947.28;4999731;28;20051;-84
2022/08/06 02:32:32;;;;;;;;;;;;;;;26.96;58.81;100942.81;5010591;28;19963;-84
2022/08/06 02:34:58;;;;;;;;;;;;;;;26.96;59.25;100941.91;5022036;28;20015;-84
2022/08/06 02:37:29;;;;;;;;;;;;;;;26.94;59.17;100943.72;5033938;28;20383;-84
2022/08/06 02:39:59;;;;;;;;;;;;;;;26.92;59.17;100940.19;5033767;28;19995;-85
2022/08/06 02:42:31;;;;;;;;;;;;;;;26.90;59.09;100942.91;4999888;28;20318;-84
2022/08/06 02:44:57;;;;;;;;;;;;;;;26.91;59.14;100936.63;5015811;28;20497;-85
2022/08/06 02:47:22;;;;;;;;;;;;;;;26.93;59.18;100940.16;5013159;28;19918;-84
2022/08/06 02:49:49;;;;;;;;;;;;;;;26.92;58.86;100940.19;5014342;28;19968;-83
2022/08/06 02:52:18;;;;;;;;;;;;;;;26.91;58.97;100936.63;5012466;28;19914;-84
2022/08/06 02:54:48;;;;;;;;;;;;;;;26.92;59.15;100935.69;5029405;28;19914;-84
2022/08/06 02:57:16;;;;;;;;;;;;;;;26.91;58.99;100941.97;5012358;28;20441;-85
2022/08/06 02:59:45;;;;;;;;;;;;;;;26.89;59.27;100940.22;5012756;28;19921;-83
2022/08/06 03:02:11;;;;;;;;;;;;;;;26.87;59.06;100942.91;5026226;28;20465;-85
2022/08/06 03:04:36;;;;;;;;;;;;;;;26.84;59.13;100940.28;5005977;28;19993;-85
2022/08/06 03:07:04;;;;;;;;;;;;;;;26.83;59.26;100940.28;5006395;28;19920;-84
2022/08/06 03:09:29;;;;;;;;;;;;;;;26.83;59.25;100937.59;5023195;28;19914;-84
2022/08/06 03:11:55;;;;;;;;;;;;;;;26.85;59.47;100941.16;5008140;28;19920;-85
2022/08/06 03:14:20;;;;;;;;;;;;;;;26.84;59.38;100945.63;5010660;28;19914;-83
2022/08/06 03:16:45;;;;;;;;;;;;;;;26.85;59.13;100943.84;5003922;28;19917;-84
2022/08/06 03:19:11;;;;;;;;;;;;;;;26.84;59.46;100944.72;5010282;28;19922;-85
2022/08/06 03:21:36;;;;;;;;;;;;;;;26.83;59.35;100954.56;5018047;28;19918;-85
2022/08/06 03:24:02;;;;;;;;;;;;;;;26.86;59.03;100946.50;5012109;28;19913;-84
2022/08/06 03:26:27;;;;;;;;;;;;;;;26.86;59.06;100951.88;5012589;28;19920;-85
2022/08/06 03:28:56;;;;;;;;;;;;;;;26.83;59.35;100957.25;5011884;28;20390;-84
2022/08/06 03:31:24;;;;;;;;;;;;;;;26.80;59.26;100955.50;5028495;28;19913;-85
2022/08/06 03:33:50;;;;;;;;;;;;;;;26.79;59.34;100958.19;4995476;28;20000;-85
2022/08/06 03:36:15;;;;;;;;;;;;;;;26.82;59.15;100958.16;5028505;28;20401;-84
2022/08/06 03:38:43;;;;;;;;;;;;;;;26.81;59.49;100959.94;4995818;28;20365;-84
2022/08/06 03:41:08;;;;;;;;;;;;;;;26.85;59.06;100965.28;5028559;28;19913;-85
2022/08/06 03:43:34;;;;;;;;;;;;;;;26.81;59.31;100959.94;5008981;28;19914;-85
2022/08/06 03:46:01;;;;;;;;;;;;;;;26.84;59.23;100967.06;5011803;28;19921;-85
2022/08/06 03:48:27;;;;;;;;;;;;;;;26.82;59.41;100966.19;4998354;28;19999;-85
2022/08/06 03:50:53;;;;;;;;;;;;;;;26.80;59.17;100966.22;5015158;28;19913;-84
2022/08/06 03:53:27;;;;;;;;;;;;;;;26.81;59.05;100967.09;4998642;28;19920;-86
2022/08/06 03:55:55;;;;;;;;;;;;;;;26.79;59.41;100968.91;5032801;28;19913;-85
2022/08/06 03:58:20;;;;;;;;;;;;;;;26.79;59.12;100963.53;5032573;28;19963;-84
2022/08/06 04:00:51;;;;;;;;;;;;;;;26.81;59.18;100965.28;5014603;28;19971;-85
2022/08/06 04:03:17;;;;;;;;;;;;;;;26.78;59.16;100959.09;5014809;28;19966;-86
2022/08/06 04:05:42;;;;;;;;;;;;;;;26.77;59.10;100965.34;4998484;28;19913;-84
2022/08/06 04:08:08;;;;;;;;;;;;;;;26.76;59.49;100964.47;4995050;28;20401;-85
2022/08/06 04:10:36;;;;;;;;;;;;;;;26.78;59.38;100964.44;5009857;28;19947;-85
2022/08/06 04:13:02;;;;;;;;;;;;;;;26.74;59.46;100970.75;5008505;28;19920;-85
2022/08/06 04:15:28;;;;;;;;;;;;;;;26.73;59.39;100971.63;5014489;28;19913;-85
2022/08/06 04:17:53;;;;;;;;;;;;;;;26.75;59.33;100962.66;5014308;28;20334;-85
2022/08/06 04:20:20;;;;;;;;;;;;;;;26.73;59.43;100969.88;5031797;28;20307;-84
2022/08/06 04:22:45;;;;;;;;;;;;;;;26.73;59.71;100961.81;5014377;28;19913;-85
2022/08/06 04:25:20;;;;;;;;;;;;;;;26.74;59.63;100970.75;5032073;28;19920;-85
2022/08/06 04:27:45;;;;;;;;;;;;;;;26.74;59.45;100960.91;5026269;28;19914;-83
2022/08/06 04:30:11;;;;;;;;;;;;;;;26.71;59.47;100966.31;5031878;28;19920;-84
2022/08/06 04:32:36;;;;;;;;;;;;;;;26.69;59.46;100967.19;5032059;28;19924;-84
2022/08/06 04:35:03;;;;;;;;;;;;;;;26.72;59.45;100960.03;5014264;28;19913;-84
2022/08/06 04:37:29;;;;;;;;;;;;;;;26.73;59.39;100956.47;5031847;28;19913;-84
2022/08/06 04:39:55;;;;;;;;;;;;;;;26.72;59.43;100954.66;5024924;28;19928;-83
2022/08/06 04:42:20;;;;;;;;;;;;;;;26.69;59.61;100954.72;5031542;28;20349;-86
2022/08/06 04:44:46;;;;;;;;;;;;;;;26.68;59.49;100965.44;4994520;28;19971;-86
2022/08/06 04:47:12;;;;;;;;;;;;;;;26.66;59.79;100967.25;5029761;28;20306;-85
2022/08/06 04:49:37;;;;;;;;;;;;;;;26.67;59.85;100974.38;5005030;28;19913;-86
2022/08/06 04:52:03;;;;;;;;;;;;;;;26.66;60.02;100970.81;5031978;28;20390;-87
2022/08/06 04:54:28;;;;;;;;;;;;;;;26.66;59.92;100970.81;5032106;28;20012;-86
2022/08/06 04:56:54;;;;;;;;;;;;;;;26.66;59.74;100978.84;4987773;28;19920;-85
2022/08/06 04:59:19;;;;;;;;;;;;;;;26.65;59.70;100971.72;4997043;28;19921;-84
2022/08/06 05:01:45;;;;;;;;;;;;;;;26.66;59.88;100975.28;5028581;28;20394;-85
2022/08/06 05:04:10;;;;;;;;;;;;;;;26.66;59.96;100975.28;5013541;28;19924;-86
2022/08/06 05:06:45;;;;;;;;;;;;;;;26.64;59.85;100971.72;5006995;28;20000;-86
2022/08/06 05:09:13;;;;;;;;;;;;;;;26.64;59.93;100963.69;5022095;28;20530;-85
2022/08/06 05:11:40;;;;;;;;;;;;;;;26.64;60.13;100975.28;5010170;28;19936;-85
2022/08/06 05:14:16;;;;;;;;;;;;;;;26.62;60.38;100971.72;5013376;28;19967;-85
2022/08/06 05:16:43;;;;;;;;;;;;;;;26.62;60.13;100977.09;5013139;28;19913;-86
2022/08/06 05:19:10;;;;;;;;;;;;;;;26.63;60.41;100970.84;4995760;28;19918;-85
2022/08/06 05:21:36;;;;;;;;;;;;;;;26.63;60.42;100972.63;4995471;28;20001;-86
2022/08/06 05:24:02;;;;;;;;;;;;;;;26.61;60.23;100972.66;4992411;28;19913;-86
2022/08/06 05:26:29;;;;;;;;;;;;;;;26.64;60.22;100969.06;5001989;28;19917;-88
2022/08/06 05:29:01;;;;;;;;;;;;;;;26.62;60.25;100968.19;5005228;28;20366;-86
2022/08/06 05:31:29;;;;;;;;;;;;;;;26.63;60.34;100967.25;5000955;28;19921;-86
2022/08/06 05:33:55;;;;;;;;;;;;;;;26.60;60.55;100971.75;5010757;28;19924;-86
2022/08/06 05:36:20;;;;;;;;;;;;;;;26.60;60.67;100970.84;4988880;28;19913;-86
2022/08/06 05:38:46;;;;;;;;;;;;;;;26.59;60.52;100971.78;5017064;28;20383;-86
2022/08/06 05:41:11;;;;;;;;;;;;;;;26.59;60.72;100971.78;4993339;28;19918;-87
2022/08/06 05:43:37;;;;;;;;;;;;;;;26.60;60.48;100977.09;4986944;28;19920;-86
2022/08/06 05:46:13;;;;;;;;;;;;;;;26.59;60.72;100975.34;4990874;28;19929;-87
2022/08/06 05:48:43;;;;;;;;;;;;;;;26.61;60.73;100983.38;4987320;28;20363;-90
2022/08/06 05:51:34;;;;;;;;;;;;;;;26.63;60.35;100980.66;4996714;28;20302;-90
2022/08/06 05:54:01;;;;;;;;;;;;;;;26.64;60.58;100977.09;4998829;28;19918;-90
2022/08/06 05:56:28;;;;;;;;;;;;;;;26.63;60.42;100978.88;4981003;28;19925;-88
2022/08/06 05:58:55;;;;;;;;;;;;;;;26.62;60.78;100973.53;4992456;28;19921;-91
2022/08/06 06:01:20;;;;;;;;;;;;;;;26.63;60.48;100975.28;5000895;28;19917;-86
2022/08/06 06:03:46;;;;;;;;;;;;;;;26.62;60.80;100976.22;5009527;28;19936;-87
2022/08/06 06:06:11;;;;;;;;;;;;;;;26.60;60.49;100968.19;5012685;28;19925;-86
2022/08/06 06:08:37;;;;;;;;;;;;;;;26.60;60.89;100971.75;4990751;28;19917;-86
2022/08/06 06:11:02;;;;;;;;;;;;;;;26.60;60.92;100973.53;5024861;28;19918;-88
2022/08/06 06:13:28;;;;;;;;;;;;;;;26.59;60.62;100978.00;5012018;28;20000;-89
2022/08/06 06:15:56;;;;;;;;;;;;;;;26.46;60.11;100968.28;5002825;28;20008;-88
2022/08/06 06:18:36;;;;;;;;;;;;;;;26.58;59.99;100967.31;4984049;28;20021;-87
2022/08/06 06:21:09;;;;;;;;;;;;;;;26.59;60.26;100961.94;5009523;28;19918;-87
2022/08/06 06:24:17;;;;;;;;;;;;;;;;;;;;;
2022/08/06 06:26:45;;;;;;;;;;;;;;;26.62;59.94;100958.34;4981675;28;19918;-85
2022/08/06 06:29:10;;;;;;;;;;;;;;;26.64;59.54;100966.38;5004530;28;19918;-87
2022/08/06 06:31:45;;;;;;;;;;;;;;;26.60;59.80;100971.75;5014334;28;20422;-87
2022/08/06 06:34:13;;;;;;;;;;;;;;;26.62;59.43;100965.50;5012442;28;19975;-86
2022/08/06 06:36:43;;;;;;;;;;;;;;;26.60;59.42;100968.19;5009739;28;19975;-87
2022/08/06 06:39:12;;;;;;;;;;;;;;;26.61;59.57;100967.28;4993151;28;19979;-86
2022/08/06 06:41:55;;;;;;;;;;;;;;;26.52;59.52;100964.63;5009673;28;19924;-87
2022/08/06 06:44:24;;;;;;;;;;;;;;;26.55;59.43;100973.53;5002516;28;19925;-89
2022/08/06 06:46:58;;;;;;;;;;;;;;;26.58;59.36;100969.97;5007545;28;19921;-89
2022/08/06 06:49:41;;;;;;;;;;;;;;;26.58;59.52;100975.34;5011667;28;19918;-90
2022/08/06 06:52:26;;;;;;;;;;;;;;;26.59;59.40;100967.28;4994108;28;20005;-89
2022/08/06 06:54:53;;;;;;;;;;;;;;;26.57;59.39;100962.88;5011554;28;19918;-91
2022/08/06 06:57:24;;;;;;;;;;;;;;;26.57;59.59;100974.47;4980750;28;19920;-87
2022/08/06 06:59:52;;;;;;;;;;;;;;;26.55;59.32;100967.31;4995219;28;19944;-88
2022/08/06 07:02:22;;;;;;;;;;;;;;;26.56;59.43;100963.72;5014192;28;19922;-90
2022/08/06 07:04:47;;;;;;;;;;;;;;;26.57;59.28;100969.09;4995571;28;20003;-89
2022/08/06 07:07:13;;;;;;;;;;;;;;;26.55;59.46;100970.00;4989921;28;19921;-88
2022/08/06 07:09:38;;;;;;;;;;;;;;;26.57;59.23;100960.19;5007042;28;20032;-88
2022/08/06 07:12:04;;;;;;;;;;;;;;;26.56;59.54;100963.72;5011305;28;20319;-88
2022/08/06 07:14:32;;;;;;;;;;;;;;;26.54;59.62;100966.44;5011061;28;19918;-89
2022/08/06 07:16:58;;;;;;;;;;;;;;;26.56;59.61;100967.34;4995775;28;19914;-89
2022/08/06 07:19:24;;;;;;;;;;;;;;;26.57;59.25;100974.47;5004636;28;20335;-88
2022/08/06 07:21:50;;;;;;;;;;;;;;;26.58;59.10;100969.97;4993859;28;21358;-88
2022/08/06 07:24:15;;;;;;;;;;;;;;;26.59;59.41;100978.00;5011291;28;20399;-89
2022/08/06 07:26:45;;;;;;;;;;;;;;;26.58;59.41;100975.34;5012086;28;19914;-88
2022/08/06 07:29:11;;;;;;;;;;;;;;;26.60;59.40;100974.41;5007170;28;19925;-86
2022/08/06 07:31:37;;;;;;;;;;;;;;;26.60;59.07;100977.09;5010727;28;19921;-88
2022/08/06 07:34:03;;;;;;;;;;;;;;;26.57;59.34;100974.47;4995737;28;20004;-89
2022/08/06 07:36:31;;;;;;;;;;;;;;;26.59;59.05;100972.66;4996870;28;19956;-89
2022/08/06 07:39:02;;;;;;;;;;;;;;;26.61;59.42;100972.66;5009849;28;20496;-90
2022/08/06 07:41:28;;;;;;;;;;;;;;;26.57;59.39;100969.09;4996289;28;20016;-90
2022/08/06 07:43:54;;;;;;;;;;;;;;;26.62;58.94;100970.84;5009539;28;20386;-89
2022/08/06 07:46:23;;;;;;;;;;;;;;;26.63;59.04;100968.16;4994602;28;19929;-89
2022/08/06 07:49:07;;;;;;;;;;;;;;;26.58;59.19;100957.47;5009369;28;19921;-87
2022/08/06 07:51:34;;;;;;;;;;;;;;;26.60;59.36;100970.84;5010496;28;19968;-86
2022/08/06 07:54:00;;;;;;;;;;;;;;;26.60;59.07;100963.69;4992738;28;20470;-87
2022/08/06 07:56:25;;;;;;;;;;;;;;;26.60;59.35;100965.50;5011801;28;19971;-87
2022/08/06 07:58:51;;;;;;;;;;;;;;;26.61;59.43;100964.63;5011316;28;19925;-87
2022/08/06 08:01:17;;;;;;;;;;;;;;;26.58;59.55;100960.16;4991936;28;19975;-87
2022/08/06 08:06:28;;;;;;;;;;;;;;;26.60;59.38;100952.97;4999659;28;20452;-87
2022/08/06 08:09:04;;;;;;;;;;;;;;;26.65;58.84;100960.09;5001778;28;19929;-95
2022/08/06 08:11:40;;;;;;;;;;;;;;;26.63;58.87;100965.50;5028599;28;19913;-95
2022/08/06 08:14:09;;;;;;;;;;;;;;;26.62;58.89;100965.50;4995474;28;19937;-95
2022/08/06 08:16:37;;;;;;;;;;;;;;;26.59;59.19;100961.94;5016846;28;19914;-92
2022/08/06 08:19:24;;;;;;;;;;;;;;;26.62;58.78;100960.13;4998297;28;19968;-94
2022/08/06 08:22:09;;;;;;;;;;;;;;;26.55;58.96;100952.13;5010502;28;19917;-95
2022/08/06 08:24:39;;;;;;;;;;;;;;;26.54;59.17;100958.41;5007399;28;19968;-93
2022/08/06 08:27:17;;;;;;;;;;;;;;;26.51;59.08;100963.75;4992932;28;19918;-94
2022/08/06 08:32:58;;;;;;;;;;;;;;;26.58;58.60;100960.16;5003385;28;20426;-94
2022/08/06 08:35:29;;;;;;;;;;;;;;;26.59;58.36;100959.25;5012344;28;19917;-96
2022/08/06 08:37:56;;;;;;;;;;;;;;;26.56;58.67;100959.31;4998071;28;19922;-92
2022/08/06 08:43:37;;;;;;;;;;;;;;;26.58;58.56;100970.84;5010717;28;20445;-93
2022/08/06 08:46:03;;;;;;;;;;;;;;;26.59;58.26;100964.63;4999371;28;19984;-94
2022/08/06 08:48:35;;;;;;;;;;;;;;;26.57;58.76;100965.53;4985251;28;20409;-94
2022/08/06 08:51:01;;;;;;;;;;;;;;;26.60;58.28;100969.06;4997601;28;19916;-90
2022/08/06 08:53:51;;;;;;;;;;;;;;;26.62;58.53;100965.50;4992184;28;19920;-89
2022/08/06 08:56:16;;;;;;;;;;;;;;;26.63;58.60;100964.56;4998516;28;20306;-91
2022/08/06 08:58:42;;;;;;;;;;;;;;;26.63;58.60;100962.81;4999221;28;19921;-91
2022/08/06 09:01:23;;;;;;;;;;;;;;;26.60;58.59;100955.66;5015950;28;20349;-93
2022/08/06 09:03:53;;;;;;;;;;;;;;;26.61;59.08;100953.91;5012372;28;19913;-94
2022/08/06 09:06:18;;;;;;;;;;;;;;;26.64;58.39;100940.47;5020877;28;19980;-93
2022/08/06 09:08:56;;;;;;;;;;;;;;;26.64;58.66;100945.81;5001333;28;19948;-94
2022/08/06 09:11:31;;;;;;;;;;;;;;;26.64;59.02;100942.25;4998741;28;20283;-94
2022/08/06 09:14:04;;;;;;;;;;;;;;;26.64;58.85;100943.13;5028825;28;19940;-92
2022/08/06 09:16:34;;;;;;;;;;;;;;;26.63;58.79;100941.38;4997938;28;20453;-93
2022/08/06 09:19:00;;;;;;;;;;;;;;;26.63;59.05;100943.16;4995423;28;19917;-91
2022/08/06 09:21:29;;;;;;;;;;;;;;;26.55;59.48;100949.44;4999646;28;20398;-92
2022/08/06 09:24:03;;;;;;;;;;;;;;;26.51;59.87;100947.69;5015429;28;19920;-93
2022/08/06 09:29:25;;;;;;;;;;;;;;;26.56;61.19;100951.28;5030153;28;19963;-90
2022/08/06 09:32:11;;;;;;;;;;;;;;;26.54;60.71;100949.44;5014914;28;19945;-90
2022/08/06 09:37:39;;;;;;;;;;;;;;;26.59;60.75;100945.88;5027920;28;20004;-93
2022/08/06 09:40:17;;;;;;;;;;;;;;;26.56;60.67;100953.00;4998643;28;19917;-92
2022/08/06 09:42:46;;;;;;;;;;;;;;;26.56;61.11;100947.66;5010929;28;19941;-92
2022/08/06 09:45:15;;;;;;;;;;;;;;;26.64;60.33;100953.84;5001404;28;19925;-92
2022/08/06 09:47:45;;;;;;;;;;;;;;;26.63;60.69;100943.16;5002623;28;19921;-93
2022/08/06 09:53:25;;;;;;;;;;;;;;;26.62;60.78;100952.97;5028869;28;19917;-95
2022/08/06 09:55:53;;;;;;;;;;;;;;;26.57;60.75;100955.72;4998178;28;20360;-92
2022/08/06 09:58:34;;;;;;;;;;;;;;;26.60;61.61;100946.75;4994502;28;19921;-91
2022/08/06 10:01:21;;;;;;;;;;;;;;;26.59;62.28;100955.69;5018490;28;19975;-91
2022/08/06 10:03:47;;;;;;;;;;;;;;;26.59;61.75;100956.59;5018472;28;19967;-91
2022/08/06 10:06:21;;;;;;;;;;;;;;;26.62;61.98;100957.47;4999554;28;19914;-93
2022/08/06 10:09:09;;;;;;;;;;;;;;;26.60;61.72;100966.38;5002932;28;19917;-92
2022/08/06 10:11:39;;;;;;;;;;;;;;;26.60;61.51;100962.81;5014589;28;19920;-94
2022/08/06 10:14:05;;;;;;;;;;;;;;;26.64;61.05;100967.25;5034468;28;19917;-93
2022/08/06 10:17:01;;;;;;;;;;;;;;;26.65;60.86;100960.09;5004703;28;20005;-93
2022/08/06 10:19:28;;;;;;;;;;;;;;;26.61;61.34;100961.94;4999077;28;20394;-92
2022/08/06 10:22:17;;;;;;;;;;;;;;;26.60;61.21;100957.47;5005530;28;19924;-92
2022/08/06 10:27:53;;;;;;;;;;;;;;;26.66;60.32;100965.44;5030516;28;19940;-91
2022/08/06 10:30:31;;;;;;;;;;;;;;;26.65;60.83;100965.44;5011084;28;19917;-89
2022/08/06 10:32:58;;;;;;;;;;;;;;;26.70;60.04;100963.63;5018422;28;19960;-89
2022/08/06 10:35:26;;;;;;;;;;;;;;;26.73;60.25;100958.22;5028395;28;19901;-96
2022/08/06 10:37:53;;;;;;;;;;;;;;;26.75;59.50;100957.31;5029222;28;19944;-94
2022/08/06 10:40:19;;;;;;;;;;;;;;;26.73;59.80;100952.88;5020816;28;19909;-95
2022/08/06 10:42:45;;;;;;;;;;;;;;;26.76;59.55;100953.75;5019570;28;19940;-93
2022/08/06 10:45:15;;;;;;;;;;;;;;;26.78;59.58;100956.41;5019082;28;19921;-94
2022/08/06 10:47:43;;;;;;;;;;;;;;;26.78;59.63;100951.94;5023505;28;20330;-94
2022/08/06 10:50:30;;;;;;;;;;;;;;;26.78;59.45;100957.28;5020592;28;19913;-96
2022/08/06 10:56:03;;;;;;;;;;;;;;;26.80;59.53;100955.50;5033212;28;19963;-92
2022/08/06 10:58:32;;;;;;;;;;;;;;;26.80;59.44;100958.16;4994254;28;19921;-93
2022/08/06 11:01:09;;;;;;;;;;;;;;;26.79;59.73;100955.50;5011381;28;19956;-95
2022/08/06 11:03:35;;;;;;;;;;;;;;;26.80;59.73;100946.56;5003147;28;19913;-96
2022/08/06 11:06:05;;;;;;;;;;;;;;;26.80;59.46;100950.13;5017480;28;20275;-94
2022/08/06 11:08:53;;;;;;;;;;;;;;;26.75;59.25;100943.91;5031010;28;19924;-93
2022/08/06 11:11:19;;;;;;;;;;;;;;;26.78;59.40;100943.91;4990330;28;19913;-93
2022/08/06 11:14:04;;;;;;;;;;;;;;;26.80;59.79;100949.25;5011610;28;19914;-93
2022/08/06 11:16:30;;;;;;;;;;;;;;;26.81;59.65;100942.97;5016695;28;19913;-93
2022/08/06 11:19:09;;;;;;;;;;;;;;;26.83;59.95;100942.97;5012336;28;20450;-93
2022/08/06 11:21:45;;;;;;;;;;;;;;;26.84;59.46;100939.38;4993855;28;19918;-92
2022/08/06 11:24:14;;;;;;;;;;;;;;;26.85;59.63;100936.69;4989951;28;20017;-93
2022/08/06 11:26:42;;;;;;;;;;;;;;;26.87;59.65;100939.34;4992157;28;19972;-91
2022/08/06 11:29:25;;;;;;;;;;;;;;;26.88;59.37;100935.75;4999997;28;19921;-91
2022/08/06 11:31:56;;;;;;;;;;;;;;;26.90;59.43;100936.63;4994734;28;20000;-92
2022/08/06 11:34:22;;;;;;;;;;;;;;;26.92;59.34;100941.06;5017063;28;19967;-92
2022/08/06 11:36:51;;;;;;;;;;;;;;;26.91;59.27;100936.63;4999516;28;20379;-91
2022/08/06 11:39:19;;;;;;;;;;;;;;;26.90;59.51;100933.94;5010512;28;19918;-93
2022/08/06 11:41:49;;;;;;;;;;;;;;;26.93;59.76;100931.25;5001002;28;20348;-92
2022/08/06 11:44:34;;;;;;;;;;;;;;;26.91;59.62;100933.06;5016762;28;19940;-92
2022/08/06 11:47:13;;;;;;;;;;;;;;;26.95;59.52;100926.75;4996990;28;20017;-92
2022/08/06 11:49:45;;;;;;;;;;;;;;;27.00;59.33;100932.94;4980735;28;20347;-93
2022/08/06 11:52:31;;;;;;;;;;;;;;;26.97;59.30;100930.31;4997806;28;19913;-92
2022/08/06 11:55:24;;;;;;;;;;;;;;;26.98;59.16;100924.03;5016446;28;19913;-92
2022/08/06 12:00:59;;;;;;;;;;;;;;;26.92;59.68;100913.38;5034103;28;19921;-91
2022/08/06 12:06:23;;;;;;;;;;;;;;;27.01;59.50;100915.97;5021982;28;19913;-92
2022/08/06 12:09:18;;;;;;;;;;;;;;;27.05;59.38;100912.34;5013131;28;19968;-93
2022/08/06 12:11:59;;;;;;;;;;;;;;;27.01;59.60;100905.25;5015216;28;19975;-94
2022/08/06 12:14:45;;;;;;;;;;;;;;;27.01;59.67;100911.50;5033874;28;19960;-94
2022/08/06 12:17:12;;;;;;;;;;;;;;;27.06;59.35;100911.44;5012768;28;20360;-93
2022/08/06 12:19:42;;;;;;;;;;;;;;;27.05;59.60;100903.41;4999680;28;20321;-92
2022/08/06 12:22:17;;;;;;;;;;;;;;;27.06;59.16;100894.47;4997773;28;19956;-92
2022/08/06 12:25:03;;;;;;;;;;;;;;;27.05;59.72;100893.59;4991323;28;19920;-92
2022/08/06 12:27:35;;;;;;;;;;;;;;;26.96;59.98;100893.69;4981864;28;19928;-89
2022/08/06 12:30:03;;;;;;;;;;;;;;;27.02;60.82;100891.81;5032019;28;19913;-88
2022/08/06 12:32:33;;;;;;;;;;;;;;;27.01;61.11;100895.41;5032190;28;19913;-87
2022/08/06 12:35:00;;;;;;;;;;;;;;;27.01;61.02;100895.41;5026077;28;20452;-89
2022/08/06 12:37:34;;;;;;;;;;;;;;;27.04;61.34;100897.16;5024599;28;19913;-90
2022/08/06 12:42:45;;;;;;;;;;;;;;;27.13;59.44;100902.41;5029322;28;19924;-89
2022/08/06 12:45:10;;;;;;;;;;;;;;;27.14;60.11;100904.19;5000494;28;19913;-88
2022/08/06 12:47:36;;;;;;;;;;;;;;;27.13;59.73;100905.06;5029252;28;20437;-88
2022/08/06 12:50:05;;;;;;;;;;;;;;;27.13;60.34;100901.53;5014275;28;19913;-88
2022/08/06 12:52:31;;;;;;;;;;;;;;;27.14;59.97;100897.94;5000889;28;19913;-88
2022/08/06 12:54:56;;;;;;;;;;;;;;;27.17;59.97;100895.22;5031938;28;19913;-89
2022/08/06 12:57:25;;;;;;;;;;;;;;;27.14;60.28;100900.63;5013418;28;19917;-88
2022/08/06 12:59:51;;;;;;;;;;;;;;;27.18;60.24;100899.69;4997501;28;20426;-88
2022/08/06 13:02:17;;;;;;;;;;;;;;;27.18;60.02;100897.00;5013874;28;20004;-87
2022/08/06 13:04:43;;;;;;;;;;;;;;;27.21;59.92;100894.28;5022997;28;19914;-88
2022/08/06 13:07:08;;;;;;;;;;;;;;;27.16;59.60;100897.00;5025176;28;20302;-88
2022/08/06 13:09:34;;;;;;;;;;;;;;;27.15;60.24;100899.72;5013408;28;19918;-88
2022/08/06 13:12:10;;;;;;;;;;;;;;;27.16;59.79;100898.81;5008767;28;19917;-89
2022/08/06 13:14:47;;;;;;;;;;;;;;;27.19;59.73;100904.13;5027271;28;19917;-87
2022/08/06 13:17:13;;;;;;;;;;;;;;;27.19;59.52;100901.44;4987330;28;19913;-87
2022/08/06 13:19:50;;;;;;;;;;;;;;;27.18;59.38;100889.84;5012443;28;20398;-88
2022/08/06 13:22:15;;;;;;;;;;;;;;;27.17;59.70;100903.25;5013262;28;19917;-87